LFRI 301030Z AUTO 08013KT 040V110 CAVOK 24/09 Q1016

ElémentsDécodage
LFRI Station météo située sur l'aérodrome de LA-ROCHE-SUR-YON Les-Ajoncs
301030Z émis le 30 du mois à 10h30 UTC
AUTO Bulletin édité par un automate
08013KT vent du 080°, 13 noeuds
040V110 vent de direction variable entre 040° et 110°
CAVOK Ceiling And Visibility OK
- Visibilité de 10 Km ou plus
- Pas de nuage au-dessous de 1500m ou au-dessous de l'altitude minimale du secteur la plus élevée (si>1500m) et absence de CB
- pas de temps présent significatif
24/09 température 24°C, point de rosée 09°C
 soit une humidité relative de 39%
Q1016 la pression au niveau de la mer (QNH) est de 1016 hPa